VSV709 UAII-UATE
Flight info
| Callsign | VSV709 |
|---|---|
| Flight time | N/A |
| Altitude | 34000 |
| Route | N0440F340 TONLA N102 GILAT T733 KUNAS N193 NEPIL |
| Aircraft | B38M/M-SDE1FGHILORVWXY/HB1 |
Departure
| Time | 2026-04-21 12:40 |
|---|---|
| Airport | Shymkent International Airport (UAII) |
Arrival
| Time | N/A |
|---|---|
| Airport | Aktau International Airport (UATE) |
| Time | Latitude | Longitude | Altitude | Speed | Heading |
|---|---|---|---|---|---|
| 2026-04-21 12:11 | 42.36669 | 69.49028 | 1358 ft | 0 kts | 24° |
| 2026-04-21 12:31 | 42.36658 | 69.49022 | 1358 ft | 2 kts | 24° |
| 2026-04-21 12:31 | 42.36645 | 69.49013 | 1357 ft | 2 kts | 24° |
| 2026-04-21 12:32 | 42.36631 | 69.49005 | 1358 ft | 2 kts | 24° |
| 2026-04-21 12:32 | 42.36618 | 69.48997 | 1357 ft | 2 kts | 24° |
| 2026-04-21 12:32 | 42.36606 | 69.48990 | 1358 ft | 2 kts | 32° |
| 2026-04-21 12:32 | 42.36597 | 69.48980 | 1358 ft | 2 kts | 52° |
| 2026-04-21 12:33 | 42.36592 | 69.48968 | 1357 ft | 1 kts | 77° |
| 2026-04-21 12:33 | 42.36592 | 69.48954 | 1356 ft | 2 kts | 98° |
| 2026-04-21 12:33 | 42.36595 | 69.48938 | 1358 ft | 2 kts | 115° |
| 2026-04-21 12:33 | 42.36600 | 69.48926 | 1357 ft | 0 kts | 125° |
| 2026-04-21 12:36 | 42.36595 | 69.48936 | 1358 ft | 3 kts | 125° |
| 2026-04-21 12:36 | 42.36573 | 69.48981 | 1358 ft | 10 kts | 118° |
| 2026-04-21 12:36 | 42.36570 | 69.49106 | 1359 ft | 15 kts | 82° |
| 2026-04-21 12:37 | 42.36542 | 69.49244 | 1358 ft | 15 kts | 116° |
| 2026-04-21 12:37 | 42.36495 | 69.49361 | 1358 ft | 11 kts | 135° |
| 2026-04-21 12:37 | 42.36426 | 69.49362 | 1359 ft | 9 kts | 197° |
| 2026-04-21 12:37 | 42.36358 | 69.49333 | 1358 ft | 11 kts | 197° |
| 2026-04-21 12:38 | 42.36283 | 69.49302 | 1358 ft | 11 kts | 197° |
| 2026-04-21 12:38 | 42.36206 | 69.49272 | 1359 ft | 12 kts | 196° |
| 2026-04-21 12:38 | 42.36154 | 69.49230 | 1358 ft | 8 kts | 242° |
| 2026-04-21 12:38 | 42.36157 | 69.49164 | 1358 ft | 8 kts | 287° |
| 2026-04-21 12:39 | 42.36186 | 69.49038 | 1358 ft | 25 kts | 287° |
| 2026-04-21 12:39 | 42.36301 | 69.48500 | 1358 ft | 95 kts | 287° |
| 2026-04-21 12:39 | 42.36548 | 69.47334 | 1360 ft | 161 kts | 283° |
| 2026-04-21 12:39 | 42.36882 | 69.45746 | 1822 ft | 185 kts | 284° |
| 2026-04-21 12:40 | 42.37281 | 69.44063 | 2731 ft | 188 kts | 282° |
| 2026-04-21 12:40 | 42.37469 | 69.42351 | 3701 ft | 181 kts | 265° |
| 2026-04-21 12:40 | 42.37304 | 69.40677 | 4443 ft | 185 kts | 255° |
| 2026-04-21 12:40 | 42.36996 | 69.38934 | 5087 ft | 194 kts | 254° |
| 2026-04-21 12:41 | 42.36741 | 69.37076 | 5622 ft | 212 kts | 258° |
| 2026-04-21 12:41 | 42.36489 | 69.35034 | 6170 ft | 230 kts | 258° |
| 2026-04-21 12:41 | 42.36218 | 69.32843 | 6831 ft | 241 kts | 258° |
| 2026-04-21 12:41 | 42.35935 | 69.30570 | 7589 ft | 250 kts | 259° |
| 2026-04-21 12:42 | 42.35640 | 69.28207 | 8365 ft | 258 kts | 258° |
| 2026-04-21 12:42 | 42.35339 | 69.25790 | 9205 ft | 264 kts | 259° |
| 2026-04-21 12:42 | 42.35013 | 69.23331 | 10040 ft | 268 kts | 258° |
| 2026-04-21 12:42 | 42.34675 | 69.20839 | 10877 ft | 271 kts | 258° |
| 2026-04-21 12:43 | 42.34341 | 69.18310 | 11680 ft | 274 kts | 258° |
| 2026-04-21 12:43 | 42.34005 | 69.15754 | 12508 ft | 278 kts | 258° |
| 2026-04-21 12:43 | 42.33666 | 69.13104 | 13014 ft | 295 kts | 258° |
| 2026-04-21 12:43 | 42.33301 | 69.10290 | 13422 ft | 312 kts | 258° |
| 2026-04-21 12:44 | 42.32916 | 69.07343 | 13945 ft | 323 kts | 258° |
| 2026-04-21 12:44 | 42.32521 | 69.04338 | 14687 ft | 325 kts | 259° |
| 2026-04-21 12:44 | 42.32123 | 69.01307 | 15403 ft | 329 kts | 259° |
| 2026-04-21 12:44 | 42.31749 | 68.98231 | 16115 ft | 333 kts | 260° |
| 2026-04-21 12:45 | 42.31373 | 68.95132 | 16825 ft | 336 kts | 260° |
| 2026-04-21 12:45 | 42.30994 | 68.92029 | 17511 ft | 340 kts | 260° |
| 2026-04-21 12:45 | 42.30604 | 68.88846 | 18172 ft | 343 kts | 260° |
| 2026-04-21 12:45 | 42.30211 | 68.85649 | 18759 ft | 346 kts | 260° |
| 2026-04-21 12:46 | 42.29815 | 68.82436 | 19404 ft | 347 kts | 260° |
| 2026-04-21 12:46 | 42.29417 | 68.79222 | 20039 ft | 348 kts | 260° |
| 2026-04-21 12:46 | 42.29023 | 68.76032 | 20653 ft | 349 kts | 260° |
| 2026-04-21 12:46 | 42.28619 | 68.72783 | 21264 ft | 351 kts | 260° |
| 2026-04-21 12:47 | 42.28214 | 68.69525 | 21867 ft | 352 kts | 260° |
| 2026-04-21 12:47 | 42.27806 | 68.66259 | 22452 ft | 354 kts | 260° |
| 2026-04-21 12:47 | 42.27389 | 68.62924 | 23057 ft | 355 kts | 260° |
| 2026-04-21 12:47 | 42.26981 | 68.59670 | 23587 ft | 356 kts | 260° |
| 2026-04-21 12:48 | 42.26566 | 68.56360 | 24043 ft | 358 kts | 260° |
| 2026-04-21 12:48 | 42.26148 | 68.53039 | 24496 ft | 360 kts | 260° |
| 2026-04-21 12:48 | 42.25726 | 68.49691 | 24937 ft | 362 kts | 260° |
| 2026-04-21 12:48 | 42.25302 | 68.46338 | 25362 ft | 364 kts | 260° |
| 2026-04-21 12:49 | 42.24874 | 68.42958 | 25779 ft | 366 kts | 260° |
| 2026-04-21 12:49 | 42.24442 | 68.39556 | 26178 ft | 368 kts | 259° |
| 2026-04-21 12:49 | 42.24007 | 68.36139 | 26594 ft | 370 kts | 259° |
| 2026-04-21 12:49 | 42.23569 | 68.32702 | 26984 ft | 372 kts | 259° |
| 2026-04-21 12:50 | 42.23127 | 68.29249 | 27371 ft | 374 kts | 259° |
| 2026-04-21 12:50 | 42.22679 | 68.25686 | 27758 ft | 376 kts | 260° |
| 2026-04-21 12:50 | 42.22295 | 68.22181 | 28137 ft | 378 kts | 260° |
| 2026-04-21 12:50 | 42.21909 | 68.18699 | 28511 ft | 380 kts | 260° |
| 2026-04-21 12:51 | 42.21515 | 68.15161 | 28856 ft | 382 kts | 260° |
| 2026-04-21 12:51 | 42.21111 | 68.11561 | 29213 ft | 384 kts | 260° |
| 2026-04-21 12:51 | 42.20710 | 68.07999 | 29564 ft | 386 kts | 260° |
| 2026-04-21 12:51 | 42.20304 | 68.04402 | 29891 ft | 388 kts | 260° |
| 2026-04-21 12:52 | 42.19901 | 68.00840 | 30186 ft | 390 kts | 260° |
| 2026-04-21 12:52 | 42.19484 | 67.97170 | 30490 ft | 391 kts | 260° |
| 2026-04-21 12:52 | 42.19072 | 67.93554 | 30838 ft | 390 kts | 260° |
| 2026-04-21 12:52 | 42.18659 | 67.89938 | 31254 ft | 388 kts | 259° |
| 2026-04-21 12:53 | 42.18253 | 67.86396 | 31673 ft | 386 kts | 259° |
| 2026-04-21 12:53 | 42.17843 | 67.82826 | 32090 ft | 384 kts | 259° |
| 2026-04-21 12:53 | 42.17433 | 67.79267 | 32483 ft | 382 kts | 259° |
| 2026-04-21 12:53 | 42.17025 | 67.75736 | 32850 ft | 381 kts | 259° |
| 2026-04-21 12:54 | 42.16617 | 67.72214 | 33210 ft | 379 kts | 259° |
| 2026-04-21 12:54 | 42.16210 | 67.68706 | 33574 ft | 377 kts | 259° |
| 2026-04-21 12:54 | 42.15803 | 67.65213 | 33780 ft | 379 kts | 259° |
| 2026-04-21 12:55 | 42.15117 | 67.59343 | 33785 ft | 384 kts | 259° |
| 2026-04-21 12:55 | 42.14194 | 67.51492 | 33784 ft | 390 kts | 259° |
| 2026-04-21 12:56 | 42.13338 | 67.44247 | 33781 ft | 391 kts | 259° |
| 2026-04-21 12:56 | 42.12477 | 67.37007 | 33776 ft | 393 kts | 259° |
| 2026-04-21 12:57 | 42.11609 | 67.29743 | 33788 ft | 390 kts | 259° |
| 2026-04-21 12:57 | 42.10739 | 67.22513 | 33780 ft | 391 kts | 258° |
| 2026-04-21 12:58 | 42.10450 | 67.20115 | 33781 ft | 392 kts | 258° |
| 2026-04-21 12:58 | 42.09014 | 67.08255 | 33778 ft | 392 kts | 258° |
| 2026-04-21 12:59 | 42.08125 | 67.01051 | 33784 ft | 395 kts | 258° |
| 2026-04-21 12:59 | 42.07217 | 66.93709 | 33774 ft | 399 kts | 258° |
| 2026-04-21 13:00 | 42.06302 | 66.86345 | 33782 ft | 396 kts | 258° |
| 2026-04-21 13:00 | 42.05387 | 66.79032 | 33784 ft | 394 kts | 258° |
| 2026-04-21 13:01 | 42.04468 | 66.71719 | 33783 ft | 398 kts | 258° |
| 2026-04-21 13:01 | 42.03549 | 66.64442 | 33783 ft | 396 kts | 258° |
| 2026-04-21 13:02 | 42.02619 | 66.57124 | 33782 ft | 396 kts | 258° |
| 2026-04-21 13:02 | 42.01220 | 66.46177 | 33783 ft | 397 kts | 258° |
| 2026-04-21 13:03 | 42.00272 | 66.38814 | 33783 ft | 402 kts | 257° |
| 2026-04-21 13:03 | 41.99316 | 66.31422 | 33787 ft | 403 kts | 257° |
| 2026-04-21 13:04 | 41.98348 | 66.23982 | 33787 ft | 405 kts | 257° |
| 2026-04-21 13:04 | 41.97382 | 66.16592 | 33790 ft | 392 kts | 257° |
| 2026-04-21 13:05 | 41.96444 | 66.09450 | 33795 ft | 383 kts | 257° |
| 2026-04-21 13:06 | 41.95668 | 65.99056 | 33781 ft | 388 kts | 277° |
| 2026-04-21 13:06 | 41.97975 | 65.88218 | 33797 ft | 394 kts | 281° |
| 2026-04-21 13:07 | 41.99586 | 65.81166 | 33799 ft | 395 kts | 281° |
| 2026-04-21 13:07 | 42.01226 | 65.74071 | 33794 ft | 397 kts | 282° |
| 2026-04-21 13:08 | 42.02861 | 65.66987 | 33794 ft | 396 kts | 281° |
| 2026-04-21 13:08 | 42.04488 | 65.59916 | 33799 ft | 398 kts | 281° |
| 2026-04-21 13:09 | 42.06126 | 65.52775 | 33801 ft | 399 kts | 281° |
| 2026-04-21 13:09 | 42.06945 | 65.49198 | 33800 ft | 401 kts | 281° |
| 2026-04-21 13:10 | 42.09373 | 65.38576 | 33799 ft | 401 kts | 281° |
| 2026-04-21 13:10 | 42.11024 | 65.31394 | 33925 ft | 400 kts | 281° |
| 2026-04-21 13:11 | 42.11845 | 65.27813 | 34037 ft | 399 kts | 281° |
| 2026-04-21 13:11 | 42.12663 | 65.24235 | 34151 ft | 399 kts | 281° |
| 2026-04-21 13:11 | 42.13475 | 65.20681 | 34258 ft | 398 kts | 281° |
| 2026-04-21 13:11 | 42.14293 | 65.17098 | 34374 ft | 398 kts | 281° |
| 2026-04-21 13:12 | 42.15106 | 65.13528 | 34482 ft | 397 kts | 281° |
| 2026-04-21 13:12 | 42.15914 | 65.09973 | 34596 ft | 396 kts | 281° |
| 2026-04-21 13:12 | 42.16721 | 65.06419 | 34714 ft | 394 kts | 281° |
| 2026-04-21 13:12 | 42.17518 | 65.02903 | 34929 ft | 390 kts | 281° |
| 2026-04-21 13:13 | 42.18295 | 64.99466 | 35155 ft | 386 kts | 280° |
| 2026-04-21 13:13 | 42.19075 | 64.96018 | 35379 ft | 382 kts | 280° |
| 2026-04-21 13:13 | 42.19845 | 64.92601 | 35605 ft | 380 kts | 280° |
| 2026-04-21 13:13 | 42.20611 | 64.89202 | 35798 ft | 378 kts | 280° |
| 2026-04-21 13:14 | 42.22144 | 64.82379 | 35815 ft | 380 kts | 280° |
| 2026-04-21 13:14 | 42.23682 | 64.75512 | 35811 ft | 384 kts | 280° |
| 2026-04-21 13:15 | 42.25224 | 64.68607 | 35805 ft | 390 kts | 280° |
| 2026-04-21 13:15 | 42.26791 | 64.61564 | 35809 ft | 393 kts | 280° |
| 2026-04-21 13:16 | 42.27058 | 64.60363 | 35809 ft | 393 kts | 280° |
| 2026-04-21 13:16 | 42.29838 | 64.47809 | 35811 ft | 397 kts | 280° |
| 2026-04-21 13:17 | 42.31160 | 64.41816 | 35810 ft | 401 kts | 280° |